createdAt,value
2018-03-21T00:00:35.409Z,982.38
2018-03-21T00:01:35.330Z,982.41
2018-03-21T00:02:35.244Z,982.41
2018-03-21T00:03:35.167Z,982.42
2018-03-21T00:04:35.079Z,982.41
2018-03-21T00:05:35.003Z,982.44
2018-03-21T00:06:34.910Z,982.47
2018-03-21T00:07:34.841Z,982.47
2018-03-21T00:08:34.751Z,982.50
2018-03-21T00:09:34.677Z,982.50
2018-03-21T00:10:34.584Z,982.53
2018-03-21T00:11:34.504Z,982.54
2018-03-21T00:12:34.462Z,982.55
2018-03-21T00:13:34.338Z,982.54
2018-03-21T00:14:34.252Z,982.53
2018-03-21T00:15:34.173Z,982.53
2018-03-21T00:16:34.083Z,982.56
2018-03-21T00:17:34.010Z,982.55
2018-03-21T00:18:33.916Z,982.54
2018-03-21T00:19:33.842Z,982.58
2018-03-21T00:20:33.749Z,982.58
2018-03-21T00:21:33.674Z,982.61
2018-03-21T00:22:33.590Z,982.62
2018-03-21T00:23:33.511Z,982.67
2018-03-21T00:24:33.419Z,982.60
2018-03-21T00:25:33.351Z,982.65
2018-03-21T00:26:33.251Z,982.67
2018-03-21T00:27:33.177Z,982.67
2018-03-21T00:28:33.085Z,982.67
2018-03-21T00:29:33.009Z,982.68
2018-03-21T00:30:32.928Z,982.68
2018-03-21T00:31:32.851Z,982.70
2018-03-21T00:32:32.762Z,982.73
2018-03-21T00:33:32.682Z,982.70
2018-03-21T00:34:32.589Z,982.73
2018-03-21T00:35:32.508Z,982.74
2018-03-21T00:36:32.426Z,982.68
2018-03-21T00:37:32.345Z,982.76
2018-03-21T00:38:32.257Z,982.71
2018-03-21T00:39:32.180Z,982.72
2018-03-21T00:40:32.087Z,982.72
2018-03-21T00:41:32.013Z,982.70
2018-03-21T00:42:31.922Z,982.74
2018-03-21T00:43:31.845Z,982.74
2018-03-21T00:44:31.758Z,982.71
2018-03-21T00:45:31.677Z,982.68
2018-03-21T00:46:31.592Z,982.70
2018-03-21T00:47:31.513Z,982.69
2018-03-21T00:48:31.426Z,982.71
2018-03-21T00:49:31.349Z,982.72
2018-03-21T00:50:31.258Z,982.73
2018-03-21T00:51:31.188Z,982.73
2018-03-21T00:52:31.091Z,982.73
2018-03-21T00:53:31.015Z,982.71
2018-03-21T00:54:30.938Z,982.76
2018-03-21T00:55:30.850Z,982.76
2018-03-21T00:56:30.760Z,982.78
2018-03-21T00:57:30.688Z,982.76
2018-03-21T00:58:30.599Z,982.77
2018-03-21T00:59:30.520Z,982.75
2018-03-21T01:00:30.425Z,982.77
2018-03-21T01:01:30.355Z,982.80
2018-03-21T01:02:30.261Z,982.74
2018-03-21T01:03:30.182Z,982.77
2018-03-21T01:04:30.092Z,982.78
2018-03-21T01:05:30.017Z,982.79
2018-03-21T01:06:29.927Z,982.84
2018-03-21T01:07:29.851Z,982.86
2018-03-21T01:08:29.758Z,982.87
2018-03-21T01:09:29.688Z,982.89
2018-03-21T01:10:29.596Z,982.85
2018-03-21T01:11:29.519Z,982.90
2018-03-21T01:12:29.429Z,982.90
2018-03-21T01:13:29.350Z,982.89
2018-03-21T01:14:29.260Z,982.90
2018-03-21T01:15:29.182Z,982.92
2018-03-21T01:16:29.092Z,982.95
2018-03-21T01:17:29.021Z,982.95
2018-03-21T01:18:28.926Z,982.96
2018-03-21T01:19:28.849Z,983.00
2018-03-21T01:20:28.761Z,982.96
2018-03-21T01:21:28.681Z,982.99
2018-03-21T01:22:28.594Z,982.94
2018-03-21T01:23:28.520Z,982.95
2018-03-21T01:24:28.425Z,982.92
2018-03-21T01:25:28.350Z,982.94
2018-03-21T01:26:28.260Z,982.91
2018-03-21T01:27:28.186Z,982.93
2018-03-21T01:28:28.093Z,982.90
2018-03-21T01:29:28.018Z,982.88
2018-03-21T01:30:27.925Z,982.91
2018-03-21T01:31:27.850Z,982.90
2018-03-21T01:32:27.758Z,982.93
2018-03-21T01:33:27.684Z,982.93
2018-03-21T01:34:27.590Z,982.89
2018-03-21T01:35:27.519Z,982.91
2018-03-21T01:36:27.422Z,982.94
2018-03-21T01:37:27.350Z,982.92
2018-03-21T01:38:27.257Z,982.96
2018-03-21T01:39:27.180Z,982.95
2018-03-21T01:40:27.094Z,982.97
2018-03-21T01:41:27.013Z,982.95
2018-03-21T01:42:26.923Z,982.97
2018-03-21T01:43:26.852Z,982.95
2018-03-21T01:44:26.762Z,982.98
2018-03-21T01:45:26.677Z,982.96
2018-03-21T01:46:26.589Z,982.95
2018-03-21T01:47:26.513Z,982.96
2018-03-21T01:48:26.422Z,982.96
2018-03-21T01:49:26.346Z,982.91
2018-03-21T01:50:26.257Z,982.92
2018-03-21T01:51:26.179Z,982.86
2018-03-21T01:52:26.088Z,982.93
2018-03-21T01:53:26.012Z,982.91
2018-03-21T01:54:25.929Z,982.91
2018-03-21T01:55:25.846Z,982.91
2018-03-21T01:56:25.755Z,982.92
2018-03-21T01:57:25.676Z,982.89
2018-03-21T01:58:25.586Z,982.91
2018-03-21T01:59:25.536Z,982.88
2018-03-21T02:00:25.422Z,982.88
2018-03-21T02:01:25.342Z,982.89
2018-03-21T02:02:25.252Z,982.94
2018-03-21T02:03:25.186Z,982.94
2018-03-21T02:04:25.091Z,982.96
2018-03-21T02:05:25.007Z,982.96
2018-03-21T02:06:24.916Z,982.97
2018-03-21T02:07:24.843Z,983.00
2018-03-21T02:08:24.750Z,982.99
2018-03-21T02:09:24.675Z,983.01
2018-03-21T02:10:24.581Z,982.97
2018-03-21T02:11:24.504Z,983.00
2018-03-21T02:12:24.413Z,983.01
2018-03-21T02:13:24.341Z,982.95
2018-03-21T02:14:24.249Z,982.95
2018-03-21T02:15:24.169Z,982.98
2018-03-21T02:16:24.080Z,982.97
2018-03-21T02:17:24.000Z,982.95
2018-03-21T02:18:23.911Z,982.96
2018-03-21T02:19:23.834Z,982.99
2018-03-21T02:20:23.740Z,982.97
2018-03-21T02:21:23.671Z,982.98
2018-03-21T02:22:23.574Z,982.97
2018-03-21T02:23:23.495Z,982.98
2018-03-21T02:24:23.411Z,982.99
2018-03-21T02:25:23.331Z,982.95
2018-03-21T02:26:23.241Z,982.98
2018-03-21T02:27:23.161Z,983.01
2018-03-21T02:28:23.083Z,982.98
2018-03-21T02:29:23.017Z,982.98
2018-03-21T02:30:22.903Z,982.98
2018-03-21T02:31:22.825Z,982.99
2018-03-21T02:32:22.736Z,983.00
2018-03-21T02:33:22.661Z,983.02
2018-03-21T02:34:22.566Z,983.02
2018-03-21T02:35:22.489Z,983.03
2018-03-21T02:36:22.400Z,983.02
2018-03-21T02:37:22.324Z,983.03
2018-03-21T02:38:22.237Z,983.03
2018-03-21T02:39:22.155Z,983.04
2018-03-21T02:40:22.062Z,983.05
2018-03-21T02:41:21.985Z,983.00
2018-03-21T02:42:21.896Z,983.01
2018-03-21T02:43:21.814Z,983.01
2018-03-21T02:44:21.736Z,983.06
2018-03-21T02:45:21.643Z,983.01
2018-03-21T02:46:21.572Z,983.04
2018-03-21T02:47:21.480Z,982.98
2018-03-21T02:48:21.400Z,983.02
2018-03-21T02:49:21.308Z,983.02
2018-03-21T02:50:21.229Z,982.99
2018-03-21T02:51:21.140Z,982.98
2018-03-21T02:52:21.061Z,983.03
2018-03-21T02:53:20.970Z,982.98
2018-03-21T02:54:20.891Z,983.02
2018-03-21T02:55:20.800Z,983.00
2018-03-21T02:56:20.726Z,983.01
2018-03-21T02:57:20.631Z,983.00
2018-03-21T02:58:20.554Z,983.02
2018-03-21T02:59:20.470Z,983.02
2018-03-21T03:00:20.389Z,983.03
2018-03-21T03:01:20.294Z,982.99
2018-03-21T03:02:20.221Z,982.99
2018-03-21T03:03:20.139Z,983.02
2018-03-21T03:04:20.053Z,982.97
2018-03-21T03:05:19.957Z,982.98
2018-03-21T03:06:19.884Z,982.98
2018-03-21T03:07:19.791Z,982.98
2018-03-21T03:08:19.716Z,982.95
2018-03-21T03:09:19.619Z,982.93
2018-03-21T03:10:19.547Z,982.94
2018-03-21T03:11:19.455Z,982.95
2018-03-21T03:12:19.380Z,982.96
2018-03-21T03:13:19.284Z,982.97
2018-03-21T03:14:19.207Z,982.98
2018-03-21T03:15:19.114Z,982.98
2018-03-21T03:16:19.048Z,983.00
2018-03-21T03:17:18.945Z,983.00
2018-03-21T03:18:18.872Z,983.02
2018-03-21T03:19:18.775Z,983.00
2018-03-21T03:20:18.713Z,983.01
2018-03-21T03:21:18.612Z,983.03
2018-03-21T03:22:18.536Z,983.02
2018-03-21T03:23:18.441Z,983.04
2018-03-21T03:24:18.366Z,983.05
2018-03-21T03:25:18.272Z,983.06
2018-03-21T03:26:18.194Z,983.09
2018-03-21T03:27:18.100Z,983.12
2018-03-21T03:28:18.028Z,983.10
2018-03-21T03:29:17.939Z,983.10
2018-03-21T03:30:17.858Z,983.14
2018-03-21T03:31:17.765Z,983.18
2018-03-21T03:32:17.684Z,983.22
2018-03-21T03:33:17.635Z,983.24
2018-03-21T03:34:17.517Z,983.22
2018-03-21T03:35:17.429Z,983.24
2018-03-21T03:36:17.351Z,983.20
2018-03-21T03:37:17.259Z,983.24
2018-03-21T03:38:17.234Z,983.23
2018-03-21T03:39:17.087Z,983.22
2018-03-21T03:40:17.014Z,983.21
2018-03-21T03:41:16.918Z,983.20
2018-03-21T03:42:16.841Z,983.20
2018-03-21T03:43:16.749Z,983.19
2018-03-21T03:44:16.672Z,983.21
2018-03-21T03:45:16.585Z,983.21
2018-03-21T03:46:16.505Z,983.22
2018-03-21T03:47:16.414Z,983.23
2018-03-21T03:48:16.338Z,983.21
2018-03-21T03:49:16.243Z,983.26
2018-03-21T03:50:16.165Z,983.27
2018-03-21T03:51:16.074Z,983.26
2018-03-21T03:52:15.999Z,983.26
2018-03-21T03:53:15.907Z,983.26
2018-03-21T03:54:15.830Z,983.25
2018-03-21T03:55:15.736Z,983.24
2018-03-21T03:56:15.661Z,983.29
2018-03-21T03:57:15.564Z,983.28
2018-03-21T03:58:15.490Z,983.24
2018-03-21T03:59:15.412Z,983.28
2018-03-21T04:00:15.323Z,983.28
2018-03-21T04:01:15.232Z,983.28
2018-03-21T04:02:15.152Z,983.29
2018-03-21T04:03:15.059Z,983.29
2018-03-21T04:04:14.982Z,983.28
2018-03-21T04:05:14.890Z,983.27
2018-03-21T04:06:14.812Z,983.29
2018-03-21T04:07:14.722Z,983.29
2018-03-21T04:08:14.642Z,983.32
2018-03-21T04:09:14.555Z,983.29
2018-03-21T04:10:14.474Z,983.31
2018-03-21T04:11:14.381Z,983.31
2018-03-21T04:12:14.304Z,983.29
2018-03-21T04:13:14.212Z,983.35
2018-03-21T04:14:14.134Z,983.33
2018-03-21T04:15:14.043Z,983.30
2018-03-21T04:16:13.964Z,983.35
2018-03-21T04:17:13.876Z,983.33
2018-03-21T04:18:13.793Z,983.30
2018-03-21T04:19:13.701Z,983.29
2018-03-21T04:20:13.627Z,983.31
2018-03-21T04:21:13.537Z,983.34
2018-03-21T04:22:13.458Z,983.34
2018-03-21T04:23:13.406Z,983.36
2018-03-21T04:24:13.284Z,983.40
2018-03-21T04:25:13.193Z,983.40
2018-03-21T04:26:13.117Z,983.39
2018-03-21T04:27:13.024Z,983.39
2018-03-21T04:28:12.950Z,983.39
2018-03-21T04:29:12.853Z,983.35
2018-03-21T04:30:12.775Z,983.33
2018-03-21T04:31:12.685Z,983.33
2018-03-21T04:32:12.608Z,983.33
2018-03-21T04:33:12.514Z,983.35
2018-03-21T04:34:12.437Z,983.34
2018-03-21T04:35:12.344Z,983.35
2018-03-21T04:36:12.264Z,983.37
2018-03-21T04:37:12.174Z,983.34
2018-03-21T04:38:12.092Z,983.34
2018-03-21T04:39:12.004Z,983.35
2018-03-21T04:40:11.934Z,983.33
2018-03-21T04:41:11.834Z,983.32
2018-03-21T04:42:11.755Z,983.31
2018-03-21T04:43:11.664Z,983.28
2018-03-21T04:44:11.585Z,983.28
2018-03-21T04:45:11.493Z,983.30
2018-03-21T04:46:11.444Z,983.28
2018-03-21T04:47:11.322Z,983.32
2018-03-21T04:48:11.259Z,983.27
2018-03-21T04:49:11.150Z,983.29
2018-03-21T04:50:11.166Z,983.30
2018-03-21T04:51:10.982Z,983.31
2018-03-21T04:52:10.972Z,983.32
2018-03-21T04:53:10.813Z,983.33
2018-03-21T04:54:10.782Z,983.34
2018-03-21T04:55:10.652Z,983.35
2018-03-21T04:56:10.594Z,983.34
2018-03-21T04:57:10.469Z,983.37
2018-03-21T04:58:10.399Z,983.37
2018-03-21T04:59:10.301Z,983.38
2018-03-21T05:00:10.314Z,983.39
2018-03-21T05:01:10.129Z,983.38
2018-03-21T05:02:10.119Z,983.38
2018-03-21T05:03:09.961Z,983.39
2018-03-21T05:04:09.880Z,983.42
2018-03-21T05:05:09.787Z,983.41
2018-03-21T05:06:09.737Z,983.48
2018-03-21T05:07:09.614Z,983.45
2018-03-21T05:08:09.646Z,983.48
2018-03-21T05:09:09.447Z,983.46
2018-03-21T05:10:09.453Z,983.51
2018-03-21T05:11:09.275Z,983.49
2018-03-21T05:12:09.264Z,983.51
2018-03-21T05:13:09.103Z,983.55
2018-03-21T05:14:09.069Z,983.55
2018-03-21T05:15:08.931Z,983.54
2018-03-21T05:16:08.884Z,983.59
2018-03-21T05:17:08.761Z,983.58
2018-03-21T05:18:08.790Z,983.61
2018-03-21T05:19:08.590Z,983.64
2018-03-21T05:20:08.527Z,983.63
2018-03-21T05:21:08.417Z,983.66
2018-03-21T05:22:08.348Z,983.67
2018-03-21T05:23:08.247Z,983.67
2018-03-21T05:24:08.172Z,983.70
2018-03-21T05:25:08.076Z,983.68
2018-03-21T05:26:08.023Z,983.75
2018-03-21T05:27:07.903Z,983.74
2018-03-21T05:28:07.935Z,983.75
2018-03-21T05:29:07.735Z,983.79
2018-03-21T05:30:07.741Z,983.78
2018-03-21T05:31:07.567Z,983.77
2018-03-21T05:32:07.554Z,983.79
2018-03-21T05:33:07.391Z,983.83
2018-03-21T05:34:07.316Z,983.88
2018-03-21T05:35:07.217Z,983.83
2018-03-21T05:36:07.166Z,983.87
2018-03-21T05:37:07.050Z,983.89
2018-03-21T05:38:06.971Z,983.91
2018-03-21T05:39:06.877Z,983.90
2018-03-21T05:40:06.888Z,983.91
2018-03-21T05:41:06.704Z,983.93
2018-03-21T05:42:06.627Z,984.00
2018-03-21T05:43:06.614Z,983.99
2018-03-21T05:44:06.457Z,983.99
2018-03-21T05:45:06.363Z,984.02
2018-03-21T05:46:06.284Z,983.97
2018-03-21T05:47:06.272Z,983.99
2018-03-21T05:48:06.158Z,983.98
2018-03-21T05:49:06.020Z,983.98
2018-03-21T05:50:06.033Z,983.96
2018-03-21T05:51:05.849Z,983.99
2018-03-21T05:52:05.844Z,983.99
2018-03-21T05:53:05.676Z,984.00
2018-03-21T05:54:05.600Z,984.02
2018-03-21T05:55:05.506Z,984.00
2018-03-21T05:56:05.426Z,984.01
2018-03-21T05:57:05.332Z,984.03
2018-03-21T05:58:05.260Z,984.05
2018-03-21T05:59:05.162Z,984.04
2018-03-21T06:00:05.178Z,984.05
2018-03-21T06:01:04.993Z,984.10
2018-03-21T06:02:04.917Z,984.10
2018-03-21T06:03:04.820Z,984.12
2018-03-21T06:04:04.751Z,984.14
2018-03-21T06:05:04.655Z,984.15
2018-03-21T06:06:04.570Z,984.18
2018-03-21T06:07:04.477Z,984.16
2018-03-21T06:08:04.408Z,984.17
2018-03-21T06:09:04.309Z,984.18
2018-03-21T06:10:04.226Z,984.19
2018-03-21T06:11:04.140Z,984.19
2018-03-21T06:12:04.063Z,984.25
2018-03-21T06:13:03.962Z,984.23
2018-03-21T06:14:03.936Z,984.26
2018-03-21T06:15:03.793Z,984.22
2018-03-21T06:16:03.745Z,984.28
2018-03-21T06:17:03.617Z,984.29
2018-03-21T06:18:03.547Z,984.27
2018-03-21T06:19:03.450Z,984.34
2018-03-21T06:20:03.370Z,984.30
2018-03-21T06:21:03.276Z,984.30
2018-03-21T06:22:03.271Z,984.30
2018-03-21T06:23:03.104Z,984.31
2018-03-21T06:24:03.078Z,984.33
2018-03-21T06:25:02.931Z,984.37
2018-03-21T06:26:02.890Z,984.42
2018-03-21T06:27:02.766Z,984.45
2018-03-21T06:28:02.694Z,984.41
2018-03-21T06:29:02.595Z,984.43
2018-03-21T06:30:02.605Z,984.45
2018-03-21T06:31:02.421Z,984.47
2018-03-21T06:32:02.412Z,984.50
2018-03-21T06:33:02.248Z,984.52
2018-03-21T06:34:02.170Z,984.52
2018-03-21T06:35:02.087Z,984.58
2018-03-21T06:36:02.090Z,984.57
2018-03-21T06:37:01.911Z,984.59
2018-03-21T06:38:01.859Z,984.61
2018-03-21T06:39:01.736Z,984.64
2018-03-21T06:40:01.753Z,984.66
2018-03-21T06:41:01.570Z,984.67
2018-03-21T06:42:01.560Z,984.71
2018-03-21T06:43:01.396Z,984.72
2018-03-21T06:44:01.366Z,984.74
2018-03-21T06:45:01.226Z,984.74
2018-03-21T06:46:01.176Z,984.85
2018-03-21T06:47:01.058Z,984.82
2018-03-21T06:48:01.087Z,984.88
2018-03-21T06:49:00.883Z,984.90
2018-03-21T06:50:00.948Z,984.92
2018-03-21T06:51:00.717Z,984.96
2018-03-21T06:52:00.699Z,984.96
2018-03-21T06:53:00.546Z,984.97
2018-03-21T06:54:00.509Z,985.00
2018-03-21T06:55:00.376Z,985.01
2018-03-21T06:56:00.316Z,985.01
2018-03-21T06:57:00.204Z,985.06
2018-03-21T06:58:00.228Z,985.06
2018-03-21T06:59:00.035Z,985.06
2018-03-21T07:00:00.036Z,985.05
2018-03-21T07:00:59.869Z,985.02
2018-03-21T07:01:59.847Z,985.09
2018-03-21T07:02:59.696Z,985.08
2018-03-21T07:03:59.657Z,985.11
2018-03-21T07:04:59.525Z,985.13
2018-03-21T07:06:05.304Z,985.11
2018-03-21T07:06:59.364Z,985.15
2018-03-21T07:07:59.374Z,985.16
2018-03-21T07:08:59.187Z,985.17
2018-03-21T07:09:59.182Z,985.20
2018-03-21T07:10:59.017Z,985.20
2018-03-21T07:11:58.990Z,985.20
2018-03-21T07:12:58.850Z,985.21
2018-03-21T07:13:58.799Z,985.22
2018-03-21T07:14:58.682Z,985.27
2018-03-21T07:15:58.712Z,985.29
2018-03-21T07:16:58.515Z,985.29
2018-03-21T07:17:58.519Z,985.30
2018-03-21T07:18:58.346Z,985.29
2018-03-21T07:19:58.324Z,985.28
2018-03-21T07:20:58.172Z,985.32
2018-03-21T07:21:58.140Z,985.32
2018-03-21T07:22:58.009Z,985.34
2018-03-21T07:23:57.943Z,985.31
2018-03-21T07:24:57.841Z,985.37
2018-03-21T07:25:57.760Z,985.38
2018-03-21T07:26:57.672Z,985.40
2018-03-21T07:27:57.597Z,985.42
2018-03-21T07:28:57.504Z,985.41
2018-03-21T07:29:57.468Z,985.43
2018-03-21T07:30:57.337Z,985.43
2018-03-21T07:31:57.277Z,985.45
2018-03-21T07:32:57.166Z,985.46
2018-03-21T07:33:57.187Z,985.47
2018-03-21T07:34:57.001Z,985.47
2018-03-21T07:35:56.997Z,985.50
2018-03-21T07:36:56.832Z,985.51
2018-03-21T07:37:56.804Z,985.52
2018-03-21T07:38:56.663Z,985.55
2018-03-21T07:39:56.613Z,985.53
2018-03-21T07:40:56.496Z,985.58
2018-03-21T07:41:56.526Z,985.62
2018-03-21T07:42:56.332Z,985.57
2018-03-21T07:43:56.333Z,985.63
2018-03-21T07:44:56.164Z,985.57
2018-03-21T07:45:56.145Z,985.58
2018-03-21T07:46:55.998Z,985.57
2018-03-21T07:47:55.950Z,985.65
2018-03-21T07:48:55.832Z,985.64
2018-03-21T07:49:55.862Z,985.65
2018-03-21T07:50:55.666Z,985.69
2018-03-21T07:51:55.667Z,985.73
2018-03-21T07:52:55.496Z,985.75
2018-03-21T07:53:55.475Z,985.73
2018-03-21T07:54:55.338Z,985.80
2018-03-21T07:55:55.283Z,985.78
2018-03-21T07:56:55.166Z,985.81
2018-03-21T07:57:55.092Z,985.84
2018-03-21T07:58:55.006Z,985.84
2018-03-21T07:59:55.000Z,985.86
2018-03-21T08:00:54.834Z,985.86
2018-03-21T08:01:54.818Z,985.86
2018-03-21T08:02:54.671Z,985.87
2018-03-21T08:03:54.598Z,985.93
2018-03-21T08:04:54.501Z,985.94
2018-03-21T08:05:54.428Z,985.92
2018-03-21T08:06:54.343Z,985.95
2018-03-21T08:07:54.264Z,985.95
2018-03-21T08:08:54.174Z,986.01
2018-03-21T08:09:54.106Z,986.03
2018-03-21T08:10:54.016Z,986.03
2018-03-21T08:11:53.935Z,986.05
2018-03-21T08:12:53.844Z,986.04
2018-03-21T08:13:53.770Z,986.04
2018-03-21T08:14:53.684Z,986.04
2018-03-21T08:15:53.651Z,986.04
2018-03-21T08:16:53.514Z,986.05
2018-03-21T08:17:53.444Z,986.04
2018-03-21T08:18:53.351Z,986.06
2018-03-21T08:19:53.280Z,986.09
2018-03-21T08:20:53.193Z,986.07
2018-03-21T08:21:53.112Z,986.11
2018-03-21T08:22:53.026Z,986.13
2018-03-21T08:23:52.950Z,986.10
2018-03-21T08:24:52.861Z,986.17
2018-03-21T08:25:52.781Z,986.16
2018-03-21T08:26:52.696Z,986.20
2018-03-21T08:27:52.616Z,986.14
2018-03-21T08:28:52.531Z,986.18
2018-03-21T08:29:52.459Z,986.17
2018-03-21T08:30:52.369Z,986.14
2018-03-21T08:31:52.296Z,986.15
2018-03-21T08:32:52.207Z,986.14
2018-03-21T08:33:52.131Z,986.15
2018-03-21T08:34:52.045Z,986.12
2018-03-21T08:35:51.973Z,986.12
2018-03-21T08:36:51.879Z,986.15
2018-03-21T08:37:51.804Z,986.14
2018-03-21T08:38:51.719Z,986.15
2018-03-21T08:39:51.645Z,986.12
2018-03-21T08:40:51.550Z,986.17
2018-03-21T08:41:51.479Z,986.18
2018-03-21T08:42:51.389Z,986.15
2018-03-21T08:43:51.317Z,986.17
2018-03-21T08:44:51.234Z,986.14
2018-03-21T08:45:51.156Z,986.17
2018-03-21T08:46:51.067Z,986.23
2018-03-21T08:47:50.990Z,986.23
2018-03-21T08:48:50.904Z,986.24
2018-03-21T08:49:50.828Z,986.24
2018-03-21T08:50:50.740Z,986.25
2018-03-21T08:51:50.667Z,986.30
2018-03-21T08:52:50.576Z,986.26
2018-03-21T08:53:50.505Z,986.31
2018-03-21T08:54:50.415Z,986.26
2018-03-21T08:55:50.335Z,986.27
2018-03-21T08:56:50.253Z,986.26
2018-03-21T08:57:50.181Z,986.33
2018-03-21T08:58:50.092Z,986.29
2018-03-21T08:59:50.017Z,986.31
2018-03-21T09:00:49.932Z,986.30
2018-03-21T09:01:49.853Z,986.29
2018-03-21T09:02:49.766Z,986.29
2018-03-21T09:03:49.693Z,986.31
2018-03-21T09:04:49.608Z,986.26
2018-03-21T09:05:49.533Z,986.27
2018-03-21T09:06:49.445Z,986.26
2018-03-21T09:07:49.370Z,986.24
2018-03-21T09:08:49.283Z,986.26
2018-03-21T09:09:49.213Z,986.27
2018-03-21T09:10:49.122Z,986.26
2018-03-21T09:11:49.050Z,986.27
2018-03-21T09:12:48.961Z,986.25
2018-03-21T09:13:48.890Z,986.29
2018-03-21T09:14:48.805Z,986.28
2018-03-21T09:15:48.764Z,986.30
2018-03-21T09:16:48.640Z,986.32
2018-03-21T09:17:48.573Z,986.30
2018-03-21T09:18:48.481Z,986.32
2018-03-21T09:19:48.413Z,986.37
2018-03-21T09:20:48.321Z,986.35
2018-03-21T09:21:48.246Z,986.38
2018-03-21T09:22:48.165Z,986.34
2018-03-21T09:23:48.091Z,986.31
2018-03-21T09:24:48.005Z,986.32
2018-03-21T09:25:47.929Z,986.30
2018-03-21T09:26:47.843Z,986.30
2018-03-21T09:27:47.770Z,986.33
2018-03-21T09:28:47.693Z,986.32
2018-03-21T09:29:47.612Z,986.34
2018-03-21T09:30:47.533Z,986.34
2018-03-21T09:31:47.450Z,986.33
2018-03-21T09:32:47.368Z,986.29
2018-03-21T09:33:47.301Z,986.32
2018-03-21T09:34:47.213Z,986.34
2018-03-21T09:35:47.142Z,986.30
2018-03-21T09:36:47.050Z,986.32
2018-03-21T09:37:46.982Z,986.36
2018-03-21T09:38:46.897Z,986.34
2018-03-21T09:39:46.826Z,986.28
2018-03-21T09:40:46.739Z,986.36
2018-03-21T09:41:46.670Z,986.31
2018-03-21T09:42:46.579Z,986.33
2018-03-21T09:43:46.512Z,986.35
2018-03-21T09:44:46.429Z,986.35
2018-03-21T09:45:46.356Z,986.38
2018-03-21T09:46:46.265Z,986.40
2018-03-21T09:47:46.202Z,986.35
2018-03-21T09:48:46.114Z,986.37
2018-03-21T09:49:46.048Z,986.34
2018-03-21T09:50:45.964Z,986.38
2018-03-21T09:51:45.889Z,986.39
2018-03-21T09:52:45.807Z,986.40
2018-03-21T09:53:45.734Z,986.41
2018-03-21T09:54:45.650Z,986.41
2018-03-21T09:55:45.581Z,986.41
2018-03-21T09:56:45.493Z,986.40
2018-03-21T09:57:45.422Z,986.39
2018-03-21T09:58:45.338Z,986.38
2018-03-21T09:59:45.271Z,986.37
2018-03-21T10:00:45.182Z,986.37
2018-03-21T10:01:45.116Z,986.42
2018-03-21T10:02:45.028Z,986.40
2018-03-21T10:03:44.963Z,986.42
2018-03-21T10:04:44.875Z,986.39
2018-03-21T10:05:44.806Z,986.43
2018-03-21T10:06:44.720Z,986.42
2018-03-21T10:07:44.653Z,986.42
2018-03-21T10:08:44.585Z,986.44
2018-03-21T10:09:44.494Z,986.43
2018-03-21T10:10:44.411Z,986.41
2018-03-21T10:11:44.341Z,986.43
2018-03-21T10:12:44.258Z,986.40
2018-03-21T10:13:44.186Z,986.43
2018-03-21T10:14:44.103Z,986.41
2018-03-21T10:15:44.042Z,986.43
2018-03-21T10:16:43.948Z,986.46
2018-03-21T10:17:43.886Z,986.47
2018-03-21T10:18:43.795Z,986.48
2018-03-21T10:19:43.724Z,986.46
2018-03-21T10:20:43.643Z,986.47
2018-03-21T10:21:43.571Z,986.46
2018-03-21T10:22:43.487Z,986.44
2018-03-21T10:23:43.420Z,986.40
2018-03-21T10:24:43.340Z,986.42
2018-03-21T10:25:43.267Z,986.45
2018-03-21T10:26:43.188Z,986.49
2018-03-21T10:27:43.108Z,986.49
2018-03-21T10:28:43.026Z,986.47
2018-03-21T10:29:42.966Z,986.48
2018-03-21T10:30:42.882Z,986.51
2018-03-21T10:31:42.803Z,986.50
2018-03-21T10:32:42.718Z,986.48
2018-03-21T10:33:42.649Z,986.50
2018-03-21T10:34:42.569Z,986.49
2018-03-21T10:35:42.497Z,986.48
2018-03-21T10:36:42.417Z,986.49
2018-03-21T10:37:42.345Z,986.49
2018-03-21T10:38:42.263Z,986.48
2018-03-21T10:39:42.193Z,986.50
2018-03-21T10:40:42.112Z,986.49
2018-03-21T10:41:42.038Z,986.48
2018-03-21T10:42:41.972Z,986.48
2018-03-21T10:43:41.911Z,986.45
2018-03-21T10:44:41.832Z,986.49
2018-03-21T10:45:41.730Z,986.48
2018-03-21T10:46:41.650Z,986.47
2018-03-21T10:47:41.582Z,986.48
2018-03-21T10:48:41.499Z,986.47
2018-03-21T10:49:41.429Z,986.54
2018-03-21T10:50:41.351Z,986.53
2018-03-21T10:51:41.278Z,986.53
2018-03-21T10:52:41.193Z,986.48
2018-03-21T10:53:41.125Z,986.46
2018-03-21T10:54:41.048Z,986.43
2018-03-21T10:55:40.974Z,986.43
2018-03-21T10:56:40.885Z,986.47
2018-03-21T10:57:40.820Z,986.47
2018-03-21T10:58:40.736Z,986.50
2018-03-21T10:59:40.683Z,986.48
2018-03-21T11:00:40.585Z,986.48
2018-03-21T11:01:40.514Z,986.43
2018-03-21T11:02:40.438Z,986.44
2018-03-21T11:03:40.360Z,986.38
2018-03-21T11:04:40.280Z,986.40
2018-03-21T11:05:40.209Z,986.41
2018-03-21T11:06:40.130Z,986.42
2018-03-21T11:07:40.068Z,986.38
2018-03-21T11:08:39.974Z,986.39
2018-03-21T11:09:39.904Z,986.38
2018-03-21T11:10:39.825Z,986.42
2018-03-21T11:11:39.782Z,986.35
2018-03-21T11:12:39.672Z,986.38
2018-03-21T11:13:39.606Z,986.36
2018-03-21T11:14:39.520Z,986.39
2018-03-21T11:15:39.449Z,986.37
2018-03-21T11:16:39.365Z,986.40
2018-03-21T11:17:39.305Z,986.39
2018-03-21T11:18:39.217Z,986.36
2018-03-21T11:19:39.144Z,986.34
2018-03-21T11:20:39.062Z,986.33
2018-03-21T11:21:38.998Z,986.36
2018-03-21T11:22:38.914Z,986.29
2018-03-21T11:23:38.846Z,986.29
2018-03-21T11:24:38.757Z,986.28
2018-03-21T11:25:38.689Z,986.30
2018-03-21T11:26:38.609Z,986.28
2018-03-21T11:27:38.537Z,986.28
2018-03-21T11:28:38.452Z,986.29
2018-03-21T11:29:38.383Z,986.27
2018-03-21T11:30:38.303Z,986.28
2018-03-21T11:31:38.234Z,986.30
2018-03-21T11:32:38.150Z,986.28
2018-03-21T11:33:38.166Z,986.27
2018-03-21T11:34:37.998Z,986.30
2018-03-21T11:35:38.725Z,986.28
2018-03-21T11:36:37.849Z,986.28
2018-03-21T11:37:37.781Z,986.27
2018-03-21T11:38:37.696Z,986.28
2018-03-21T11:39:37.754Z,986.27
2018-03-21T11:40:37.545Z,986.26
2018-03-21T11:41:37.519Z,986.28
2018-03-21T11:42:37.392Z,986.25
2018-03-21T11:43:37.327Z,986.26
2018-03-21T11:44:37.240Z,986.24
2018-03-21T11:45:37.170Z,986.23
2018-03-21T11:46:37.090Z,986.24
2018-03-21T11:47:37.018Z,986.20
2018-03-21T11:48:36.937Z,986.18
2018-03-21T11:49:36.955Z,986.18
2018-03-21T11:50:36.788Z,986.14
2018-03-21T11:51:36.720Z,986.18
2018-03-21T11:52:36.631Z,986.17
2018-03-21T11:53:36.675Z,986.20
2018-03-21T11:54:36.487Z,986.17
2018-03-21T11:55:36.426Z,986.17
2018-03-21T11:56:36.329Z,986.15
2018-03-21T11:57:36.291Z,986.14
2018-03-21T11:58:36.203Z,986.12
2018-03-21T11:59:36.205Z,986.12
2018-03-21T12:00:36.030Z,986.10
2018-03-21T12:01:36.008Z,986.11
2018-03-21T12:02:35.875Z,986.06
2018-03-21T12:03:35.829Z,986.09
2018-03-21T12:04:35.723Z,986.07
2018-03-21T12:05:35.728Z,986.03
2018-03-21T12:06:35.574Z,986.06
2018-03-21T12:07:35.504Z,986.02
2018-03-21T12:08:35.482Z,985.98
2018-03-21T12:09:35.356Z,986.03
2018-03-21T12:10:35.268Z,986.00
2018-03-21T12:11:35.258Z,986.02
2018-03-21T12:12:35.122Z,986.03
2018-03-21T12:13:35.038Z,985.99
2018-03-21T12:14:34.970Z,986.01
2018-03-21T12:15:35.083Z,985.96
2018-03-21T12:16:34.819Z,985.99
2018-03-21T12:17:35.913Z,985.99
2018-03-21T12:18:34.660Z,985.97
2018-03-21T12:19:34.794Z,986.00
2018-03-21T12:20:34.511Z,985.93
2018-03-21T12:21:34.606Z,985.92
2018-03-21T12:22:34.363Z,985.91
2018-03-21T12:23:34.415Z,985.92
2018-03-21T12:24:34.205Z,985.90
2018-03-21T12:25:34.332Z,985.91
2018-03-21T12:26:34.055Z,985.93
2018-03-21T12:27:34.043Z,985.88